sensor_id;sensor_type;location;lat;lon;timestamp;P1;durP1;ratioP1;P2;durP2;ratioP2
85457;SDS011;75848;42.706;23.292;2024-03-02T00:00:22;26.67;;;11.55;;
85457;SDS011;75848;42.706;23.292;2024-03-02T00:02:50;27.10;;;12.60;;
85457;SDS011;75848;42.706;23.292;2024-03-02T00:05:17;33.35;;;13.15;;
85457;SDS011;75848;42.706;23.292;2024-03-02T00:07:55;22.55;;;10.85;;
85457;SDS011;75848;42.706;23.292;2024-03-02T00:10:25;29.17;;;12.40;;
85457;SDS011;75848;42.706;23.292;2024-03-02T00:12:54;25.40;;;12.55;;
85457;SDS011;75848;42.706;23.292;2024-03-02T00:17:53;20.40;;;11.55;;
85457;SDS011;75848;42.706;23.292;2024-03-02T00:20:21;23.55;;;11.07;;
85457;SDS011;75848;42.706;23.292;2024-03-02T00:22:47;24.70;;;9.93;;
85457;SDS011;75848;42.706;23.292;2024-03-02T00:25:13;21.85;;;11.07;;
85457;SDS011;75848;42.706;23.292;2024-03-02T00:27:38;20.52;;;10.55;;
85457;SDS011;75848;42.706;23.292;2024-03-02T00:33:07;24.92;;;11.23;;
85457;SDS011;75848;42.706;23.292;2024-03-02T00:35:33;26.02;;;11.73;;
85457;SDS011;75848;42.706;23.292;2024-03-02T00:38:03;25.48;;;12.63;;
85457;SDS011;75848;42.706;23.292;2024-03-02T00:40:31;23.05;;;11.48;;
85457;SDS011;75848;42.706;23.292;2024-03-02T00:42:56;26.70;;;11.73;;
85457;SDS011;75848;42.706;23.292;2024-03-02T00:45:22;23.25;;;10.63;;
85457;SDS011;75848;42.706;23.292;2024-03-02T00:47:50;23.25;;;10.15;;
85457;SDS011;75848;42.706;23.292;2024-03-02T00:50:15;28.70;;;12.88;;
85457;SDS011;75848;42.706;23.292;2024-03-02T00:52:43;27.17;;;10.90;;
85457;SDS011;75848;42.706;23.292;2024-03-02T00:55:09;21.45;;;10.30;;
85457;SDS011;75848;42.706;23.292;2024-03-02T00:57:34;23.20;;;12.82;;
85457;SDS011;75848;42.706;23.292;2024-03-02T01:00:00;26.02;;;11.40;;
85457;SDS011;75848;42.706;23.292;2024-03-02T01:02:26;24.60;;;10.63;;
85457;SDS011;75848;42.706;23.292;2024-03-02T01:04:54;26.98;;;11.95;;
85457;SDS011;75848;42.706;23.292;2024-03-02T01:07:20;20.73;;;11.73;;
85457;SDS011;75848;42.706;23.292;2024-03-02T01:09:45;24.17;;;12.05;;
85457;SDS011;75848;42.706;23.292;2024-03-02T01:12:12;30.83;;;13.68;;
85457;SDS011;75848;42.706;23.292;2024-03-02T01:14:38;26.98;;;11.98;;
85457;SDS011;75848;42.706;23.292;2024-03-02T01:17:03;27.52;;;11.75;;
85457;SDS011;75848;42.706;23.292;2024-03-02T01:19:29;26.55;;;13.68;;
85457;SDS011;75848;42.706;23.292;2024-03-02T01:21:56;29.90;;;12.68;;
85457;SDS011;75848;42.706;23.292;2024-03-02T01:24:22;28.67;;;11.45;;
85457;SDS011;75848;42.706;23.292;2024-03-02T01:26:47;22.95;;;11.05;;
85457;SDS011;75848;42.706;23.292;2024-03-02T01:29:13;23.85;;;10.95;;
85457;SDS011;75848;42.706;23.292;2024-03-02T01:31:40;22.45;;;11.32;;
85457;SDS011;75848;42.706;23.292;2024-03-02T01:34:07;24.33;;;11.85;;
85457;SDS011;75848;42.706;23.292;2024-03-02T01:36:33;23.02;;;10.98;;
85457;SDS011;75848;42.706;23.292;2024-03-02T01:38:58;21.95;;;10.90;;
85457;SDS011;75848;42.706;23.292;2024-03-02T01:41:24;28.65;;;12.15;;
85457;SDS011;75848;42.706;23.292;2024-03-02T01:43:50;27.42;;;11.93;;
85457;SDS011;75848;42.706;23.292;2024-03-02T01:46:15;30.40;;;12.65;;
85457;SDS011;75848;42.706;23.292;2024-03-02T01:48:41;23.95;;;12.52;;
85457;SDS011;75848;42.706;23.292;2024-03-02T01:51:07;27.65;;;11.70;;
85457;SDS011;75848;42.706;23.292;2024-03-02T01:53:33;24.75;;;11.63;;
85457;SDS011;75848;42.706;23.292;2024-03-02T01:55:59;24.80;;;12.48;;
85457;SDS011;75848;42.706;23.292;2024-03-02T01:58:26;28.80;;;14.35;;
85457;SDS011;75848;42.706;23.292;2024-03-02T02:00:52;28.10;;;13.00;;
85457;SDS011;75848;42.706;23.292;2024-03-02T02:03:18;27.88;;;13.38;;
85457;SDS011;75848;42.706;23.292;2024-03-02T02:05:43;28.92;;;13.60;;
85457;SDS011;75848;42.706;23.292;2024-03-02T02:08:09;29.13;;;12.70;;
85457;SDS011;75848;42.706;23.292;2024-03-02T02:10:35;29.67;;;13.68;;
85457;SDS011;75848;42.706;23.292;2024-03-02T02:13:01;29.45;;;13.13;;
85457;SDS011;75848;42.706;23.292;2024-03-02T02:15:30;29.65;;;14.35;;
85457;SDS011;75848;42.706;23.292;2024-03-02T02:17:57;30.55;;;13.90;;
85457;SDS011;75848;42.706;23.292;2024-03-02T02:20:23;28.70;;;12.65;;
85457;SDS011;75848;42.706;23.292;2024-03-02T02:22:54;28.88;;;14.00;;
85457;SDS011;75848;42.706;23.292;2024-03-02T02:25:22;31.55;;;13.50;;
85457;SDS011;75848;42.706;23.292;2024-03-02T02:30:32;30.63;;;14.20;;
85457;SDS011;75848;42.706;23.292;2024-03-02T02:32:58;24.05;;;11.98;;
85457;SDS011;75848;42.706;23.292;2024-03-02T02:35:24;29.73;;;13.60;;
85457;SDS011;75848;42.706;23.292;2024-03-02T02:37:49;25.00;;;12.65;;
85457;SDS011;75848;42.706;23.292;2024-03-02T02:40:17;32.80;;;14.82;;
85457;SDS011;75848;42.706;23.292;2024-03-02T02:42:44;33.70;;;13.57;;
85457;SDS011;75848;42.706;23.292;2024-03-02T02:45:09;37.45;;;15.35;;
85457;SDS011;75848;42.706;23.292;2024-03-02T02:47:36;31.38;;;15.38;;
85457;SDS011;75848;42.706;23.292;2024-03-02T02:50:04;34.08;;;14.30;;
85457;SDS011;75848;42.706;23.292;2024-03-02T02:52:33;35.72;;;15.48;;
85457;SDS011;75848;42.706;23.292;2024-03-02T02:55:04;25.90;;;12.85;;
85457;SDS011;75848;42.706;23.292;2024-03-02T02:57:34;28.23;;;12.90;;
85457;SDS011;75848;42.706;23.292;2024-03-02T03:00:04;30.35;;;13.30;;
85457;SDS011;75848;42.706;23.292;2024-03-02T03:02:35;32.33;;;15.30;;
85457;SDS011;75848;42.706;23.292;2024-03-02T03:05:05;32.28;;;14.52;;
85457;SDS011;75848;42.706;23.292;2024-03-02T03:07:32;28.52;;;13.65;;
85457;SDS011;75848;42.706;23.292;2024-03-02T03:09:58;29.40;;;12.95;;
85457;SDS011;75848;42.706;23.292;2024-03-02T03:12:24;29.35;;;14.30;;
85457;SDS011;75848;42.706;23.292;2024-03-02T03:14:50;32.80;;;13.45;;
85457;SDS011;75848;42.706;23.292;2024-03-02T03:17:15;31.65;;;15.60;;
85457;SDS011;75848;42.706;23.292;2024-03-02T03:19:41;28.30;;;13.02;;
85457;SDS011;75848;42.706;23.292;2024-03-02T03:22:07;26.08;;;13.32;;
85457;SDS011;75848;42.706;23.292;2024-03-02T03:24:33;32.80;;;13.75;;
85457;SDS011;75848;42.706;23.292;2024-03-02T03:26:59;30.90;;;13.95;;
85457;SDS011;75848;42.706;23.292;2024-03-02T03:29:24;28.42;;;13.13;;
85457;SDS011;75848;42.706;23.292;2024-03-02T03:31:50;33.00;;;14.90;;
85457;SDS011;75848;42.706;23.292;2024-03-02T03:34:16;28.02;;;13.48;;
85457;SDS011;75848;42.706;23.292;2024-03-02T03:36:41;32.80;;;14.68;;
85457;SDS011;75848;42.706;23.292;2024-03-02T03:39:08;31.75;;;15.40;;
85457;SDS011;75848;42.706;23.292;2024-03-02T03:41:33;35.70;;;14.90;;
85457;SDS011;75848;42.706;23.292;2024-03-02T03:43:59;34.95;;;14.55;;
85457;SDS011;75848;42.706;23.292;2024-03-02T03:46:24;28.48;;;14.52;;
85457;SDS011;75848;42.706;23.292;2024-03-02T03:48:50;29.88;;;15.25;;
85457;SDS011;75848;42.706;23.292;2024-03-02T03:51:16;34.47;;;14.13;;
85457;SDS011;75848;42.706;23.292;2024-03-02T03:53:41;34.20;;;14.70;;
85457;SDS011;75848;42.706;23.292;2024-03-02T03:56:07;34.88;;;14.73;;
85457;SDS011;75848;42.706;23.292;2024-03-02T03:58:32;31.17;;;14.55;;
85457;SDS011;75848;42.706;23.292;2024-03-02T04:00:58;27.42;;;13.45;;
85457;SDS011;75848;42.706;23.292;2024-03-02T04:03:25;34.83;;;13.35;;
85457;SDS011;75848;42.706;23.292;2024-03-02T04:05:50;30.52;;;14.07;;
85457;SDS011;75848;42.706;23.292;2024-03-02T04:08:16;33.25;;;13.65;;
85457;SDS011;75848;42.706;23.292;2024-03-02T04:10:41;36.08;;;16.80;;
85457;SDS011;75848;42.706;23.292;2024-03-02T04:13:07;33.15;;;14.25;;
85457;SDS011;75848;42.706;23.292;2024-03-02T04:15:34;37.97;;;17.88;;
85457;SDS011;75848;42.706;23.292;2024-03-02T04:18:00;42.42;;;17.13;;
85457;SDS011;75848;42.706;23.292;2024-03-02T04:20:25;38.13;;;16.38;;
85457;SDS011;75848;42.706;23.292;2024-03-02T04:22:51;38.20;;;16.50;;
85457;SDS011;75848;42.706;23.292;2024-03-02T04:25:16;34.80;;;16.40;;
85457;SDS011;75848;42.706;23.292;2024-03-02T04:27:42;38.58;;;16.80;;
85457;SDS011;75848;42.706;23.292;2024-03-02T04:30:08;38.80;;;18.33;;
85457;SDS011;75848;42.706;23.292;2024-03-02T04:32:33;38.42;;;18.45;;
85457;SDS011;75848;42.706;23.292;2024-03-02T04:35:01;34.10;;;15.80;;
85457;SDS011;75848;42.706;23.292;2024-03-02T04:37:29;41.67;;;16.90;;
85457;SDS011;75848;42.706;23.292;2024-03-02T04:39:54;33.10;;;15.00;;
85457;SDS011;75848;42.706;23.292;2024-03-02T04:42:20;38.15;;;16.70;;
85457;SDS011;75848;42.706;23.292;2024-03-02T04:44:45;38.85;;;17.35;;
85457;SDS011;75848;42.706;23.292;2024-03-02T04:47:11;39.22;;;22.83;;
85457;SDS011;75848;42.706;23.292;2024-03-02T04:49:37;34.25;;;16.38;;
85457;SDS011;75848;42.706;23.292;2024-03-02T04:52:03;38.97;;;15.63;;
85457;SDS011;75848;42.706;23.292;2024-03-02T04:54:28;34.85;;;15.57;;
85457;SDS011;75848;42.706;23.292;2024-03-02T04:56:54;33.13;;;14.75;;
85457;SDS011;75848;42.706;23.292;2024-03-02T04:59:21;34.20;;;15.93;;
85457;SDS011;75848;42.706;23.292;2024-03-02T05:01:47;34.70;;;15.30;;
85457;SDS011;75848;42.706;23.292;2024-03-02T05:04:12;40.33;;;16.88;;
85457;SDS011;75848;42.706;23.292;2024-03-02T05:06:40;40.25;;;15.75;;
85457;SDS011;75848;42.706;23.292;2024-03-02T05:09:19;34.45;;;16.05;;
85457;SDS011;75848;42.706;23.292;2024-03-02T05:12:01;38.78;;;16.13;;
85457;SDS011;75848;42.706;23.292;2024-03-02T05:14:34;40.53;;;17.27;;
85457;SDS011;75848;42.706;23.292;2024-03-02T05:17:10;34.33;;;17.15;;
85457;SDS011;75848;42.706;23.292;2024-03-02T05:20:16;39.40;;;16.58;;
85457;SDS011;75848;42.706;23.292;2024-03-02T05:22:49;40.47;;;17.60;;
85457;SDS011;75848;42.706;23.292;2024-03-02T05:25:14;36.80;;;16.73;;
85457;SDS011;75848;42.706;23.292;2024-03-02T05:27:40;38.95;;;19.13;;
85457;SDS011;75848;42.706;23.292;2024-03-02T05:30:07;42.80;;;16.67;;
85457;SDS011;75848;42.706;23.292;2024-03-02T05:32:33;37.30;;;17.73;;
85457;SDS011;75848;42.706;23.292;2024-03-02T05:34:59;38.45;;;17.33;;
85457;SDS011;75848;42.706;23.292;2024-03-02T05:37:25;43.28;;;19.45;;
85457;SDS011;75848;42.706;23.292;2024-03-02T05:39:50;46.95;;;18.25;;
85457;SDS011;75848;42.706;23.292;2024-03-02T05:42:16;37.03;;;17.45;;
85457;SDS011;75848;42.706;23.292;2024-03-02T05:44:43;38.75;;;17.67;;
85457;SDS011;75848;42.706;23.292;2024-03-02T05:47:11;44.25;;;19.17;;
85457;SDS011;75848;42.706;23.292;2024-03-02T05:49:37;44.88;;;18.52;;
85457;SDS011;75848;42.706;23.292;2024-03-02T05:52:03;37.25;;;17.90;;
85457;SDS011;75848;42.706;23.292;2024-03-02T05:54:29;44.42;;;19.23;;
85457;SDS011;75848;42.706;23.292;2024-03-02T05:56:55;41.97;;;17.25;;
85457;SDS011;75848;42.706;23.292;2024-03-02T05:59:20;40.58;;;18.08;;
85457;SDS011;75848;42.706;23.292;2024-03-02T06:01:46;41.33;;;19.17;;
85457;SDS011;75848;42.706;23.292;2024-03-02T06:04:14;44.33;;;18.35;;
85457;SDS011;75848;42.706;23.292;2024-03-02T06:06:40;41.38;;;16.95;;
85457;SDS011;75848;42.706;23.292;2024-03-02T06:09:06;43.00;;;17.38;;
85457;SDS011;75848;42.706;23.292;2024-03-02T06:11:37;44.88;;;16.38;;
85457;SDS011;75848;42.706;23.292;2024-03-02T06:14:07;46.28;;;18.13;;
85457;SDS011;75848;42.706;23.292;2024-03-02T06:16:34;40.13;;;16.42;;
85457;SDS011;75848;42.706;23.292;2024-03-02T06:19:00;36.65;;;14.80;;
85457;SDS011;75848;42.706;23.292;2024-03-02T06:21:26;39.22;;;15.75;;
85457;SDS011;75848;42.706;23.292;2024-03-02T06:23:53;35.13;;;14.95;;
85457;SDS011;75848;42.706;23.292;2024-03-02T06:26:19;41.28;;;16.00;;
85457;SDS011;75848;42.706;23.292;2024-03-02T06:28:45;34.45;;;15.50;;
85457;SDS011;75848;42.706;23.292;2024-03-02T06:31:12;41.60;;;17.00;;
85457;SDS011;75848;42.706;23.292;2024-03-02T06:33:37;37.25;;;16.25;;
85457;SDS011;75848;42.706;23.292;2024-03-02T06:36:05;36.90;;;14.50;;
85457;SDS011;75848;42.706;23.292;2024-03-02T06:38:33;36.72;;;14.98;;
85457;SDS011;75848;42.706;23.292;2024-03-02T06:40:59;39.25;;;16.73;;
85457;SDS011;75848;42.706;23.292;2024-03-02T06:43:25;37.33;;;15.00;;
85457;SDS011;75848;42.706;23.292;2024-03-02T06:45:50;33.90;;;15.32;;
85457;SDS011;75848;42.706;23.292;2024-03-02T06:48:16;32.90;;;13.90;;
85457;SDS011;75848;42.706;23.292;2024-03-02T06:50:49;35.03;;;14.68;;
85457;SDS011;75848;42.706;23.292;2024-03-02T06:53:15;34.72;;;15.10;;
85457;SDS011;75848;42.706;23.292;2024-03-02T06:55:44;36.13;;;14.32;;
85457;SDS011;75848;42.706;23.292;2024-03-02T06:58:13;36.50;;;14.57;;
85457;SDS011;75848;42.706;23.292;2024-03-02T07:00:40;33.70;;;14.65;;
85457;SDS011;75848;42.706;23.292;2024-03-02T07:03:06;34.97;;;15.35;;
85457;SDS011;75848;42.706;23.292;2024-03-02T07:05:33;35.42;;;15.27;;
85457;SDS011;75848;42.706;23.292;2024-03-02T07:07:58;40.15;;;15.15;;
85457;SDS011;75848;42.706;23.292;2024-03-02T07:10:24;42.70;;;15.95;;
85457;SDS011;75848;42.706;23.292;2024-03-02T07:12:51;36.22;;;15.25;;
85457;SDS011;75848;42.706;23.292;2024-03-02T07:15:17;33.50;;;14.20;;
85457;SDS011;75848;42.706;23.292;2024-03-02T07:18:12;37.47;;;14.65;;
85457;SDS011;75848;42.706;23.292;2024-03-02T07:20:37;35.65;;;15.57;;
85457;SDS011;75848;42.706;23.292;2024-03-02T07:23:06;32.95;;;16.00;;
85457;SDS011;75848;42.706;23.292;2024-03-02T07:25:32;40.05;;;15.80;;
85457;SDS011;75848;42.706;23.292;2024-03-02T07:27:58;32.05;;;14.40;;
85457;SDS011;75848;42.706;23.292;2024-03-02T07:30:24;36.35;;;15.68;;
85457;SDS011;75848;42.706;23.292;2024-03-02T07:32:51;32.22;;;13.95;;
85457;SDS011;75848;42.706;23.292;2024-03-02T07:35:18;39.20;;;15.13;;
85457;SDS011;75848;42.706;23.292;2024-03-02T07:37:45;38.30;;;15.32;;
85457;SDS011;75848;42.706;23.292;2024-03-02T07:40:11;33.30;;;14.65;;
85457;SDS011;75848;42.706;23.292;2024-03-02T07:42:38;35.30;;;15.40;;
85457;SDS011;75848;42.706;23.292;2024-03-02T07:45:05;35.60;;;14.60;;
85457;SDS011;75848;42.706;23.292;2024-03-02T07:47:32;35.13;;;13.90;;
85457;SDS011;75848;42.706;23.292;2024-03-02T07:49:59;36.35;;;16.08;;
85457;SDS011;75848;42.706;23.292;2024-03-02T07:52:25;31.98;;;13.20;;
85457;SDS011;75848;42.706;23.292;2024-03-02T07:54:51;33.45;;;15.80;;
85457;SDS011;75848;42.706;23.292;2024-03-02T07:57:16;32.42;;;15.02;;
85457;SDS011;75848;42.706;23.292;2024-03-02T07:59:45;36.70;;;15.25;;
85457;SDS011;75848;42.706;23.292;2024-03-02T08:02:10;41.08;;;15.98;;
85457;SDS011;75848;42.706;23.292;2024-03-02T08:04:37;35.95;;;14.77;;
85457;SDS011;75848;42.706;23.292;2024-03-02T08:07:03;37.40;;;15.25;;
85457;SDS011;75848;42.706;23.292;2024-03-02T08:09:29;38.58;;;16.40;;
85457;SDS011;75848;42.706;23.292;2024-03-02T08:11:56;31.13;;;13.98;;
85457;SDS011;75848;42.706;23.292;2024-03-02T08:14:23;36.72;;;15.20;;
85457;SDS011;75848;42.706;23.292;2024-03-02T08:16:50;44.65;;;17.00;;
85457;SDS011;75848;42.706;23.292;2024-03-02T08:19:16;38.67;;;15.23;;
85457;SDS011;75848;42.706;23.292;2024-03-02T08:21:42;36.25;;;15.27;;
85457;SDS011;75848;42.706;23.292;2024-03-02T08:24:08;32.97;;;16.15;;
85457;SDS011;75848;42.706;23.292;2024-03-02T08:26:34;36.45;;;15.95;;
85457;SDS011;75848;42.706;23.292;2024-03-02T08:29:00;30.35;;;15.27;;
85457;SDS011;75848;42.706;23.292;2024-03-02T08:31:30;33.70;;;15.50;;
85457;SDS011;75848;42.706;23.292;2024-03-02T08:33:56;45.72;;;16.17;;
85457;SDS011;75848;42.706;23.292;2024-03-02T08:36:22;38.72;;;15.30;;
85457;SDS011;75848;42.706;23.292;2024-03-02T08:38:50;33.20;;;14.73;;
85457;SDS011;75848;42.706;23.292;2024-03-02T08:41:16;32.55;;;14.20;;
85457;SDS011;75848;42.706;23.292;2024-03-02T08:43:42;30.95;;;14.23;;
85457;SDS011;75848;42.706;23.292;2024-03-02T08:46:08;34.80;;;14.93;;
85457;SDS011;75848;42.706;23.292;2024-03-02T08:48:34;30.77;;;14.82;;
85457;SDS011;75848;42.706;23.292;2024-03-02T08:51:00;32.50;;;14.20;;
85457;SDS011;75848;42.706;23.292;2024-03-02T08:53:29;32.25;;;15.18;;
85457;SDS011;75848;42.706;23.292;2024-03-02T08:55:55;38.08;;;15.40;;
85457;SDS011;75848;42.706;23.292;2024-03-02T08:58:21;32.05;;;14.80;;
85457;SDS011;75848;42.706;23.292;2024-03-02T09:00:46;35.00;;;16.10;;
85457;SDS011;75848;42.706;23.292;2024-03-02T09:03:12;35.10;;;15.05;;
85457;SDS011;75848;42.706;23.292;2024-03-02T09:05:38;35.33;;;16.23;;
85457;SDS011;75848;42.706;23.292;2024-03-02T09:08:04;29.45;;;14.55;;
85457;SDS011;75848;42.706;23.292;2024-03-02T09:10:30;29.52;;;15.05;;
85457;SDS011;75848;42.706;23.292;2024-03-02T09:12:55;33.38;;;16.25;;
85457;SDS011;75848;42.706;23.292;2024-03-02T09:15:21;32.80;;;15.05;;
85457;SDS011;75848;42.706;23.292;2024-03-02T09:17:46;32.95;;;15.10;;
85457;SDS011;75848;42.706;23.292;2024-03-02T09:20:12;38.63;;;15.35;;
85457;SDS011;75848;42.706;23.292;2024-03-02T09:22:39;33.97;;;15.65;;
85457;SDS011;75848;42.706;23.292;2024-03-02T09:25:04;34.20;;;16.30;;
85457;SDS011;75848;42.706;23.292;2024-03-02T09:27:32;32.10;;;14.57;;
85457;SDS011;75848;42.706;23.292;2024-03-02T09:30:05;31.67;;;15.35;;
85457;SDS011;75848;42.706;23.292;2024-03-02T09:32:34;30.42;;;14.77;;
85457;SDS011;75848;42.706;23.292;2024-03-02T09:34:59;33.03;;;15.95;;
85457;SDS011;75848;42.706;23.292;2024-03-02T09:37:26;31.52;;;14.63;;
85457;SDS011;75848;42.706;23.292;2024-03-02T09:39:52;34.85;;;15.70;;
85457;SDS011;75848;42.706;23.292;2024-03-02T09:42:18;32.75;;;14.95;;
85457;SDS011;75848;42.706;23.292;2024-03-02T09:44:46;28.58;;;14.32;;
85457;SDS011;75848;42.706;23.292;2024-03-02T09:47:13;32.05;;;15.60;;
85457;SDS011;75848;42.706;23.292;2024-03-02T09:49:39;35.17;;;14.88;;
85457;SDS011;75848;42.706;23.292;2024-03-02T09:52:05;30.92;;;14.65;;
85457;SDS011;75848;42.706;23.292;2024-03-02T09:54:32;37.45;;;17.15;;
85457;SDS011;75848;42.706;23.292;2024-03-02T09:56:58;30.85;;;14.80;;
85457;SDS011;75848;42.706;23.292;2024-03-02T09:59:28;31.40;;;13.88;;
85457;SDS011;75848;42.706;23.292;2024-03-02T10:02:03;34.17;;;14.95;;
85457;SDS011;75848;42.706;23.292;2024-03-02T10:04:32;31.73;;;15.15;;
85457;SDS011;75848;42.706;23.292;2024-03-02T10:09:39;33.35;;;15.23;;
85457;SDS011;75848;42.706;23.292;2024-03-02T10:12:07;35.67;;;15.52;;
85457;SDS011;75848;42.706;23.292;2024-03-02T10:14:34;38.22;;;16.77;;
85457;SDS011;75848;42.706;23.292;2024-03-02T10:17:03;33.42;;;15.60;;
85457;SDS011;75848;42.706;23.292;2024-03-02T10:19:33;35.38;;;16.15;;
85457;SDS011;75848;42.706;23.292;2024-03-02T10:22:00;34.13;;;15.60;;
85457;SDS011;75848;42.706;23.292;2024-03-02T10:27:01;32.08;;;14.93;;
85457;SDS011;75848;42.706;23.292;2024-03-02T10:29:29;35.78;;;15.30;;
85457;SDS011;75848;42.706;23.292;2024-03-02T10:31:55;36.25;;;14.88;;
85457;SDS011;75848;42.706;23.292;2024-03-02T10:34:21;43.25;;;16.15;;
85457;SDS011;75848;42.706;23.292;2024-03-02T10:36:47;35.45;;;16.20;;
85457;SDS011;75848;42.706;23.292;2024-03-02T10:39:13;36.50;;;16.45;;
85457;SDS011;75848;42.706;23.292;2024-03-02T10:41:40;34.53;;;15.13;;
85457;SDS011;75848;42.706;23.292;2024-03-02T10:44:06;34.33;;;15.52;;
85457;SDS011;75848;42.706;23.292;2024-03-02T10:46:34;39.10;;;16.35;;
85457;SDS011;75848;42.706;23.292;2024-03-02T10:51:33;31.42;;;14.05;;
85457;SDS011;75848;42.706;23.292;2024-03-02T10:54:04;36.15;;;13.95;;
85457;SDS011;75848;42.706;23.292;2024-03-02T10:56:30;38.10;;;16.10;;
85457;SDS011;75848;42.706;23.292;2024-03-02T10:59:05;36.92;;;16.10;;
85457;SDS011;75848;42.706;23.292;2024-03-02T11:01:47;37.17;;;16.02;;
85457;SDS011;75848;42.706;23.292;2024-03-02T11:04:17;31.90;;;13.77;;
85457;SDS011;75848;42.706;23.292;2024-03-02T11:06:48;33.40;;;14.18;;
85457;SDS011;75848;42.706;23.292;2024-03-02T11:09:21;31.27;;;15.25;;
85457;SDS011;75848;42.706;23.292;2024-03-02T11:11:54;35.28;;;15.27;;
85457;SDS011;75848;42.706;23.292;2024-03-02T11:14:31;30.48;;;14.98;;
85457;SDS011;75848;42.706;23.292;2024-03-02T11:16:58;37.45;;;16.15;;
85457;SDS011;75848;42.706;23.292;2024-03-02T11:19:28;31.88;;;13.95;;
85457;SDS011;75848;42.706;23.292;2024-03-02T11:21:56;32.15;;;14.88;;
85457;SDS011;75848;42.706;23.292;2024-03-02T11:26:54;24.33;;;12.25;;
85457;SDS011;75848;42.706;23.292;2024-03-02T11:32:28;30.05;;;12.93;;
85457;SDS011;75848;42.706;23.292;2024-03-02T11:34:54;30.77;;;14.40;;
85457;SDS011;75848;42.706;23.292;2024-03-02T11:37:27;23.30;;;12.00;;
85457;SDS011;75848;42.706;23.292;2024-03-02T11:39:52;26.90;;;12.55;;
85457;SDS011;75848;42.706;23.292;2024-03-02T11:42:18;30.75;;;14.27;;
85457;SDS011;75848;42.706;23.292;2024-03-02T11:44:47;27.80;;;12.88;;
85457;SDS011;75848;42.706;23.292;2024-03-02T11:47:16;27.25;;;13.05;;
85457;SDS011;75848;42.706;23.292;2024-03-02T11:49:46;27.17;;;12.82;;
85457;SDS011;75848;42.706;23.292;2024-03-02T11:52:12;29.30;;;13.30;;
85457;SDS011;75848;42.706;23.292;2024-03-02T11:54:41;31.02;;;13.23;;
85457;SDS011;75848;42.706;23.292;2024-03-02T11:57:21;31.88;;;13.10;;
85457;SDS011;75848;42.706;23.292;2024-03-02T11:59:52;28.00;;;11.70;;
85457;SDS011;75848;42.706;23.292;2024-03-02T12:02:18;24.45;;;13.10;;
85457;SDS011;75848;42.706;23.292;2024-03-02T12:04:45;31.73;;;14.00;;
85457;SDS011;75848;42.706;23.292;2024-03-02T12:07:13;32.15;;;15.20;;
85457;SDS011;75848;42.706;23.292;2024-03-02T12:09:45;29.92;;;13.73;;
85457;SDS011;75848;42.706;23.292;2024-03-02T12:12:11;30.00;;;13.07;;
85457;SDS011;75848;42.706;23.292;2024-03-02T12:14:38;25.92;;;13.50;;
85457;SDS011;75848;42.706;23.292;2024-03-02T12:17:05;23.08;;;12.27;;
85457;SDS011;75848;42.706;23.292;2024-03-02T12:19:31;26.20;;;13.45;;
85457;SDS011;75848;42.706;23.292;2024-03-02T12:21:59;24.70;;;12.27;;
85457;SDS011;75848;42.706;23.292;2024-03-02T12:24:27;27.15;;;12.88;;
85457;SDS011;75848;42.706;23.292;2024-03-02T12:26:54;26.20;;;12.77;;
85457;SDS011;75848;42.706;23.292;2024-03-02T12:29:20;29.73;;;12.75;;
85457;SDS011;75848;42.706;23.292;2024-03-02T12:31:49;26.60;;;13.00;;
85457;SDS011;75848;42.706;23.292;2024-03-02T12:34:17;25.42;;;12.95;;
85457;SDS011;75848;42.706;23.292;2024-03-02T12:36:47;26.88;;;13.23;;
85457;SDS011;75848;42.706;23.292;2024-03-02T12:39:16;24.15;;;12.18;;
85457;SDS011;75848;42.706;23.292;2024-03-02T12:41:42;29.48;;;13.02;;
85457;SDS011;75848;42.706;23.292;2024-03-02T12:44:08;25.73;;;13.52;;
85457;SDS011;75848;42.706;23.292;2024-03-02T12:46:34;24.05;;;12.25;;
85457;SDS011;75848;42.706;23.292;2024-03-02T12:49:10;22.88;;;11.75;;
85457;SDS011;75848;42.706;23.292;2024-03-02T12:51:41;22.50;;;12.38;;
85457;SDS011;75848;42.706;23.292;2024-03-02T12:54:08;25.00;;;13.00;;
85457;SDS011;75848;42.706;23.292;2024-03-02T12:56:36;25.63;;;12.00;;
85457;SDS011;75848;42.706;23.292;2024-03-02T12:59:03;28.45;;;12.85;;
85457;SDS011;75848;42.706;23.292;2024-03-02T13:01:29;33.95;;;15.80;;
85457;SDS011;75848;42.706;23.292;2024-03-02T13:03:57;35.05;;;17.05;;
85457;SDS011;75848;42.706;23.292;2024-03-02T13:06:24;37.22;;;19.17;;
85457;SDS011;75848;42.706;23.292;2024-03-02T13:08:54;37.78;;;19.10;;
85457;SDS011;75848;42.706;23.292;2024-03-02T13:11:20;35.28;;;17.40;;
85457;SDS011;75848;42.706;23.292;2024-03-02T13:13:48;46.10;;;25.48;;
85457;SDS011;75848;42.706;23.292;2024-03-02T13:16:15;51.28;;;24.08;;
85457;SDS011;75848;42.706;23.292;2024-03-02T13:18:44;43.20;;;22.27;;
85457;SDS011;75848;42.706;23.292;2024-03-02T13:21:10;36.58;;;18.52;;
85457;SDS011;75848;42.706;23.292;2024-03-02T13:23:37;39.03;;;16.67;;
85457;SDS011;75848;42.706;23.292;2024-03-02T13:26:03;30.65;;;16.90;;
85457;SDS011;75848;42.706;23.292;2024-03-02T13:28:29;43.03;;;18.90;;
85457;SDS011;75848;42.706;23.292;2024-03-02T13:30:55;36.50;;;17.58;;
85457;SDS011;75848;42.706;23.292;2024-03-02T13:33:20;30.90;;;16.40;;
85457;SDS011;75848;42.706;23.292;2024-03-02T13:35:49;32.30;;;15.27;;
85457;SDS011;75848;42.706;23.292;2024-03-02T13:38:16;31.77;;;14.75;;
85457;SDS011;75848;42.706;23.292;2024-03-02T13:40:46;31.05;;;15.90;;
85457;SDS011;75848;42.706;23.292;2024-03-02T13:43:16;26.42;;;13.40;;
85457;SDS011;75848;42.706;23.292;2024-03-02T13:45:44;23.17;;;11.63;;
85457;SDS011;75848;42.706;23.292;2024-03-02T13:48:09;28.23;;;12.90;;
85457;SDS011;75848;42.706;23.292;2024-03-02T13:50:35;22.48;;;12.00;;
85457;SDS011;75848;42.706;23.292;2024-03-02T13:53:02;22.67;;;11.77;;
85457;SDS011;75848;42.706;23.292;2024-03-02T13:55:28;23.80;;;13.27;;
85457;SDS011;75848;42.706;23.292;2024-03-02T13:57:54;25.58;;;13.02;;
85457;SDS011;75848;42.706;23.292;2024-03-02T14:00:20;21.05;;;12.02;;
85457;SDS011;75848;42.706;23.292;2024-03-02T14:02:46;34.83;;;12.57;;
85457;SDS011;75848;42.706;23.292;2024-03-02T14:05:12;38.03;;;18.85;;
85457;SDS011;75848;42.706;23.292;2024-03-02T14:07:39;79.22;;;39.53;;
85457;SDS011;75848;42.706;23.292;2024-03-02T14:10:04;27.83;;;12.48;;
85457;SDS011;75848;42.706;23.292;2024-03-02T14:12:31;22.30;;;10.68;;
85457;SDS011;75848;42.706;23.292;2024-03-02T14:14:57;19.40;;;10.68;;
85457;SDS011;75848;42.706;23.292;2024-03-02T14:17:27;35.47;;;21.15;;
85457;SDS011;75848;42.706;23.292;2024-03-02T14:19:53;26.58;;;13.75;;
85457;SDS011;75848;42.706;23.292;2024-03-02T14:22:22;27.17;;;12.45;;
85457;SDS011;75848;42.706;23.292;2024-03-02T14:24:47;24.77;;;13.00;;
85457;SDS011;75848;42.706;23.292;2024-03-02T14:27:14;26.23;;;13.13;;
85457;SDS011;75848;42.706;23.292;2024-03-02T14:29:40;27.92;;;14.73;;